EDXW

Westerland Sylt Airport

Westerland, Germany
TAF EDXW 171100Z 1712/1718 18004KT 5000 BR SCT012 BKN020 TEMPO 1712/1718 3000 BR BKN008 PROB40 TEMPO 1714/1718 2000 OVC002
Issued Valid From Valid To
Dec-17 @ 11:00 UTC
(an hour ago)
Dec-17 @ 12:00 UTC
(7 minutes ago)
Dec-17 @ 18:00 UTC
(in 6 hours)
Dec-17 @ 12:00 to Dec-17 @ 18:00
TAF EDXW 171100Z 1712/1718 18004KT 5000 BR SCT012 BKN020
Wind Visibility Clouds Conditions
180° at 4 knots 5,005 meters
  • Scattered at 1,200' AGL
  • Broken at 2,000' AGL
  • Mist
Temporary Dec-17 @ 12:00 to Dec-17 @ 18:00
TEMPO 1712/1718 3000 BR BKN008
Visibility Clouds Conditions
2,993 meters
  • Broken at 800' AGL
  • Mist
Temporary  (Probability 40%) Dec-17 @ 14:00 to Dec-17 @ 18:00
PROB40 TEMPO 1714/1718 2000 OVC002
Visibility Clouds
1,996 meters
  • Overcast at 200' AGL
TAF EDXW 171100Z 1712/1718 18004KT 5000 BR SCT012 BKN020 TEMPO 1712/1718 3000 BR BKN008 PROB40 TEMPO 1714/1718 2000 OVC002
Issued Dec-17 @ 11:00 UTC
(an hour ago)
Valid From Dec-17 @ 12:00 UTC
(7 minutes ago)
Valid To Dec-17 @ 18:00 UTC
(in 6 hours)
Dec-17 @ 12:00 - Dec-17 @ 18:00
Wind Visibility
180° at 4 knots 5,005 meters
Clouds
  • Scattered at 1,200' AGL
  • Broken at 2,000' AGL
Conditions
  • Mist
Temporary Dec-17 @ 12:00 - Dec-17 @ 18:00
Clouds
  • Broken at 800' AGL
Conditions
  • Mist
Probability 40% Temporary Dec-17 @ 14:00 - Dec-17 @ 18:00
Clouds
  • Overcast at 200' AGL